createdAt,value
2023-09-11T00:00:58.874Z,26.38
2023-09-11T00:01:58.815Z,25.09
2023-09-11T00:02:58.879Z,26.05
2023-09-11T00:03:58.874Z,26.05
2023-09-11T00:04:58.781Z,25.09
2023-09-11T00:06:04.704Z,27.67
2023-09-11T00:06:59.776Z,23.48
2023-09-11T00:07:58.737Z,26.38
2023-09-11T00:08:58.798Z,24.44
2023-09-11T00:09:58.706Z,25.41
2023-09-11T00:10:58.688Z,26.38
2023-09-11T00:11:58.686Z,24.77
2023-09-11T00:12:58.675Z,26.05
2023-09-11T00:13:58.658Z,24.44
2023-09-11T00:14:58.649Z,25.09
2023-09-11T00:15:58.640Z,25.73
2023-09-11T00:16:58.659Z,24.77
2023-09-11T00:17:58.714Z,26.38
2023-09-11T00:18:58.592Z,26.38
2023-09-11T00:19:58.580Z,24.12
2023-09-11T00:20:58.573Z,25.09
2023-09-11T00:21:58.551Z,25.09
2023-09-11T00:22:58.558Z,25.73
2023-09-11T00:23:58.518Z,25.09
2023-09-11T00:24:58.514Z,26.70
2023-09-11T00:25:58.497Z,25.73
2023-09-11T00:26:58.486Z,24.12
2023-09-11T00:27:58.470Z,26.38
2023-09-11T00:28:58.463Z,26.38
2023-09-11T00:29:58.448Z,25.73
2023-09-11T00:30:58.743Z,27.02
2023-09-11T00:31:58.414Z,25.73
2023-09-11T00:32:58.460Z,25.09
2023-09-11T00:33:58.389Z,26.38
2023-09-11T00:34:58.394Z,24.77
2023-09-11T00:35:58.439Z,25.09
2023-09-11T00:36:58.490Z,24.77
2023-09-11T00:37:58.330Z,25.09
2023-09-11T00:38:58.358Z,27.34
2023-09-11T00:39:58.463Z,24.77
2023-09-11T00:40:58.307Z,25.09
2023-09-11T00:41:58.373Z,23.80
2023-09-11T00:42:58.273Z,24.12
2023-09-11T00:43:58.258Z,27.02
2023-09-11T00:44:58.243Z,24.44
2023-09-11T00:45:58.239Z,24.77
2023-09-11T00:46:58.220Z,27.02
2023-09-11T00:47:58.428Z,25.41
2023-09-11T00:48:58.345Z,25.73
2023-09-11T00:49:58.375Z,25.09
2023-09-11T00:50:58.198Z,25.09
2023-09-11T00:51:58.159Z,25.41
2023-09-11T00:52:58.138Z,24.77
2023-09-11T00:53:58.119Z,25.09
2023-09-11T00:54:58.118Z,25.73
2023-09-11T00:55:58.254Z,26.38
2023-09-11T00:56:58.091Z,27.02
2023-09-11T00:57:58.074Z,24.77
2023-09-11T00:58:58.055Z,25.09
2023-09-11T00:59:58.064Z,26.70
2023-09-11T01:00:58.061Z,24.12
2023-09-11T01:01:58.070Z,25.41
2023-09-11T01:02:58.057Z,26.05
2023-09-11T01:03:57.995Z,25.09
2023-09-11T01:04:58.006Z,25.09
2023-09-11T01:05:58.002Z,24.12
2023-09-11T01:06:57.959Z,27.34
2023-09-11T01:07:57.938Z,27.34
2023-09-11T01:08:57.947Z,24.77
2023-09-11T01:09:57.913Z,26.38
2023-09-11T01:10:57.902Z,25.73
2023-09-11T01:11:57.892Z,25.73
2023-09-11T01:12:57.890Z,24.44
2023-09-11T01:13:57.859Z,25.09
2023-09-11T01:14:57.865Z,26.38
2023-09-11T01:15:57.855Z,25.09
2023-09-11T01:16:57.828Z,25.09
2023-09-11T01:17:57.975Z,26.05
2023-09-11T01:18:57.800Z,25.09
2023-09-11T01:19:57.790Z,25.09
2023-09-11T01:20:57.799Z,25.09
2023-09-11T01:21:57.756Z,24.77
2023-09-11T01:22:57.746Z,26.70
2023-09-11T01:23:57.742Z,24.44
2023-09-11T01:24:57.720Z,23.80
2023-09-11T01:25:57.702Z,24.12
2023-09-11T01:26:57.725Z,25.41
2023-09-11T01:27:57.685Z,24.44
2023-09-11T01:28:57.660Z,24.12
2023-09-11T01:29:57.662Z,24.44
2023-09-11T01:30:57.670Z,24.12
2023-09-11T01:31:57.640Z,25.41
2023-09-11T01:32:57.723Z,24.12
2023-09-11T01:33:57.594Z,24.12
2023-09-11T01:34:57.577Z,26.05
2023-09-11T01:35:57.583Z,25.41
2023-09-11T01:36:57.575Z,26.70
2023-09-11T01:37:57.643Z,25.73
2023-09-11T01:38:57.567Z,24.77
2023-09-11T01:39:57.521Z,24.12
2023-09-11T01:40:57.509Z,24.44
2023-09-11T01:41:57.492Z,24.12
2023-09-11T01:42:57.475Z,25.09
2023-09-11T01:43:57.460Z,25.09
2023-09-11T01:44:57.670Z,24.77
2023-09-11T01:45:57.460Z,25.41
2023-09-11T01:46:57.433Z,25.41
2023-09-11T01:47:57.484Z,24.44
2023-09-11T01:48:57.402Z,23.80
2023-09-11T01:49:57.388Z,23.80
2023-09-11T01:50:57.394Z,24.12
2023-09-11T01:51:57.359Z,23.80
2023-09-11T01:52:57.370Z,24.12
2023-09-11T01:53:57.333Z,23.48
2023-09-11T01:54:57.320Z,24.44
2023-09-11T01:55:57.311Z,24.44
2023-09-11T01:56:57.323Z,25.73
2023-09-11T01:57:57.286Z,26.38
2023-09-11T01:58:57.260Z,23.48
2023-09-11T01:59:57.251Z,24.12
2023-09-11T02:00:57.234Z,23.48
2023-09-11T02:01:57.224Z,25.73
2023-09-11T02:02:57.322Z,26.05
2023-09-11T02:03:57.339Z,23.80
2023-09-11T02:04:57.189Z,24.44
2023-09-11T02:05:57.209Z,24.77
2023-09-11T02:06:57.161Z,24.12
2023-09-11T02:07:57.138Z,24.12
2023-09-11T02:08:57.191Z,25.09
2023-09-11T02:09:57.118Z,26.70
2023-09-11T02:10:57.110Z,23.80
2023-09-11T02:11:57.097Z,24.12
2023-09-11T02:12:57.079Z,26.38
2023-09-11T02:13:57.072Z,24.44
2023-09-11T02:14:57.088Z,26.38
2023-09-11T02:15:57.066Z,24.12
2023-09-11T02:16:57.043Z,25.09
2023-09-11T02:17:57.081Z,23.80
2023-09-11T02:18:57.008Z,24.12
2023-09-11T02:19:56.995Z,26.05
2023-09-11T02:20:57.006Z,23.80
2023-09-11T02:21:56.954Z,24.12
2023-09-11T02:22:56.949Z,24.12
2023-09-11T02:23:56.963Z,26.05
2023-09-11T02:24:56.936Z,23.80
2023-09-11T02:25:56.898Z,23.80
2023-09-11T02:26:56.992Z,23.80
2023-09-11T02:27:56.867Z,25.41
2023-09-11T02:28:56.859Z,24.12
2023-09-11T02:29:56.877Z,24.12
2023-09-11T02:30:56.836Z,24.77
2023-09-11T02:31:56.846Z,23.15
2023-09-11T02:32:56.950Z,24.44
2023-09-11T02:33:56.792Z,25.41
2023-09-11T02:34:56.782Z,23.80
2023-09-11T02:35:56.797Z,23.80
2023-09-11T02:36:56.750Z,25.73
2023-09-11T02:37:56.733Z,24.44
2023-09-11T02:38:56.757Z,25.73
2023-09-11T02:39:56.714Z,24.12
2023-09-11T02:41:08.363Z,24.77
2023-09-11T02:41:57.730Z,24.12
2023-09-11T02:42:56.677Z,23.80
2023-09-11T02:43:56.660Z,25.41
2023-09-11T02:44:56.685Z,26.38
2023-09-11T02:45:56.674Z,27.34
2023-09-11T02:46:56.618Z,23.80
2023-09-11T02:47:56.643Z,27.34
2023-09-11T02:48:56.594Z,24.12
2023-09-11T02:49:56.578Z,26.05
2023-09-11T02:50:56.641Z,24.44
2023-09-11T02:51:56.550Z,23.48
2023-09-11T02:52:56.537Z,23.80
2023-09-11T02:53:56.554Z,26.70
2023-09-11T02:54:56.511Z,25.73
2023-09-11T02:55:56.498Z,23.48
2023-09-11T02:56:56.568Z,24.12
2023-09-11T02:57:56.469Z,25.09
2023-09-11T02:58:56.458Z,25.09
2023-09-11T02:59:56.563Z,22.51
2023-09-11T03:00:56.467Z,25.09
2023-09-11T03:01:56.414Z,23.80
2023-09-11T03:02:56.478Z,25.73
2023-09-11T03:03:56.403Z,24.77
2023-09-11T03:04:56.442Z,23.48
2023-09-11T03:05:56.401Z,23.80
2023-09-11T03:06:56.355Z,25.73
2023-09-11T03:07:56.337Z,23.80
2023-09-11T03:08:56.385Z,24.12
2023-09-11T03:09:56.319Z,25.09
2023-09-11T03:10:56.297Z,25.09
2023-09-11T03:11:56.330Z,25.41
2023-09-11T03:12:56.297Z,23.15
2023-09-11T03:13:56.252Z,23.15
2023-09-11T03:14:56.296Z,23.48
2023-09-11T03:15:56.302Z,23.48
2023-09-11T03:16:56.242Z,24.77
2023-09-11T03:17:56.353Z,25.73
2023-09-11T03:18:56.688Z,26.70
2023-09-11T03:19:56.189Z,23.48
2023-09-11T03:20:56.191Z,25.41
2023-09-11T03:21:56.144Z,26.70
2023-09-11T03:22:56.149Z,23.80
2023-09-11T03:23:56.166Z,22.83
2023-09-11T03:24:56.109Z,25.73
2023-09-11T03:25:56.153Z,23.48
2023-09-11T03:26:56.193Z,23.15
2023-09-11T03:27:56.075Z,23.15
2023-09-11T03:28:56.154Z,23.80
2023-09-11T03:29:56.111Z,23.48
2023-09-11T03:30:56.029Z,24.77
2023-09-11T03:31:56.017Z,24.12
2023-09-11T03:32:56.114Z,24.77
2023-09-11T03:33:56.127Z,22.83
2023-09-11T03:34:55.987Z,23.48
2023-09-11T03:35:56.024Z,23.48
2023-09-11T03:36:55.944Z,22.83
2023-09-11T03:37:55.929Z,23.15
2023-09-11T03:38:56.005Z,25.09
2023-09-11T03:39:55.901Z,24.12
2023-09-11T03:40:55.903Z,23.48
2023-09-11T03:41:55.896Z,23.15
2023-09-11T03:42:55.874Z,25.09
2023-09-11T03:43:55.858Z,25.09
2023-09-11T03:44:55.974Z,22.83
2023-09-11T03:45:55.827Z,23.48
2023-09-11T03:46:56.021Z,24.44
2023-09-11T03:47:55.909Z,24.77
2023-09-11T03:48:55.804Z,23.15
2023-09-11T03:49:55.776Z,23.15
2023-09-11T03:50:55.799Z,24.44
2023-09-11T03:51:55.750Z,23.80
2023-09-11T03:52:55.736Z,25.09
2023-09-11T03:53:55.840Z,23.48
2023-09-11T03:54:55.716Z,23.15
2023-09-11T03:55:55.708Z,23.48
2023-09-11T03:56:55.789Z,24.44
2023-09-11T03:57:55.668Z,24.12
2023-09-11T03:58:55.651Z,21.54
2023-09-11T03:59:55.669Z,23.80
2023-09-11T04:00:55.736Z,25.09
2023-09-11T04:01:55.613Z,22.83
2023-09-11T04:02:55.738Z,25.09
2023-09-11T04:03:55.697Z,25.09
2023-09-11T04:04:55.586Z,24.12
2023-09-11T04:05:55.624Z,23.48
2023-09-11T04:06:55.559Z,22.51
2023-09-11T04:07:55.539Z,24.77
2023-09-11T04:08:55.557Z,23.80
2023-09-11T04:09:55.510Z,22.83
2023-09-11T04:10:55.505Z,25.09
2023-09-11T04:11:55.510Z,25.73
2023-09-11T04:12:55.482Z,27.02
2023-09-11T04:13:55.457Z,24.77
2023-09-11T04:14:55.480Z,24.44
2023-09-11T04:15:55.433Z,24.77
2023-09-11T04:16:55.505Z,23.48
2023-09-11T04:17:55.485Z,23.80
2023-09-11T04:18:55.415Z,24.12
2023-09-11T04:19:55.383Z,25.73
2023-09-11T04:20:55.391Z,26.05
2023-09-11T04:21:55.354Z,23.80
2023-09-11T04:22:55.353Z,24.44
2023-09-11T04:23:55.349Z,23.80
2023-09-11T04:24:55.320Z,23.80
2023-09-11T04:25:55.302Z,24.12
2023-09-11T04:26:55.323Z,26.05
2023-09-11T04:27:55.569Z,22.83
2023-09-11T04:28:55.264Z,26.38
2023-09-11T04:29:55.298Z,24.77
2023-09-11T04:30:55.277Z,23.15
2023-09-11T04:31:55.230Z,25.09
2023-09-11T04:32:55.271Z,24.12
2023-09-11T04:33:55.203Z,23.48
2023-09-11T04:34:55.189Z,22.83
2023-09-11T04:35:55.229Z,22.83
2023-09-11T04:36:55.163Z,24.77
2023-09-11T04:37:55.148Z,23.48
2023-09-11T04:38:55.154Z,24.12
2023-09-11T04:39:55.114Z,24.77
2023-09-11T04:40:55.108Z,22.83
2023-09-11T04:41:55.125Z,23.15
2023-09-11T04:42:55.084Z,22.83
2023-09-11T04:43:55.065Z,22.83
2023-09-11T04:44:55.106Z,23.80
2023-09-11T04:45:55.040Z,22.19
2023-09-11T04:46:55.143Z,23.80
2023-09-11T04:47:55.151Z,24.12
2023-09-11T04:48:55.026Z,24.12
2023-09-11T04:49:55.006Z,24.77
2023-09-11T04:50:55.021Z,24.44
2023-09-11T04:51:54.999Z,22.83
2023-09-11T04:52:54.949Z,22.83
2023-09-11T04:53:54.984Z,24.77
2023-09-11T04:54:54.915Z,22.83
2023-09-11T04:55:54.904Z,24.12
2023-09-11T04:56:54.941Z,21.22
2023-09-11T04:57:54.906Z,24.77
2023-09-11T04:58:54.873Z,23.80
2023-09-11T04:59:54.887Z,25.09
2023-09-11T05:00:54.873Z,25.41
2023-09-11T05:01:54.854Z,25.09
2023-09-11T05:02:55.007Z,23.80
2023-09-11T05:03:54.913Z,23.80
2023-09-11T05:04:54.804Z,25.73
2023-09-11T05:05:54.775Z,22.51
2023-09-11T05:06:54.764Z,22.51
2023-09-11T05:07:54.758Z,21.54
2023-09-11T05:09:08.579Z,22.83
2023-09-11T05:09:55.810Z,22.19
2023-09-11T05:10:54.706Z,24.44
2023-09-11T05:11:54.690Z,22.83
2023-09-11T05:12:54.890Z,24.12
2023-09-11T05:13:54.670Z,23.80
2023-09-11T05:14:54.710Z,24.12
2023-09-11T05:15:54.688Z,24.12
2023-09-11T05:16:54.639Z,23.15
2023-09-11T05:17:54.751Z,23.48
2023-09-11T05:18:54.654Z,22.51
2023-09-11T05:19:54.587Z,22.19
2023-09-11T05:20:54.652Z,22.19
2023-09-11T05:21:54.572Z,23.15
2023-09-11T05:22:54.550Z,22.83
2023-09-11T05:23:54.616Z,22.83
2023-09-11T05:24:54.524Z,23.48
2023-09-11T05:25:54.532Z,22.51
2023-09-11T05:26:54.505Z,26.70
2023-09-11T05:27:54.481Z,24.77
2023-09-11T05:28:54.485Z,22.19
2023-09-11T05:29:54.488Z,22.19
2023-09-11T05:30:54.447Z,23.48
2023-09-11T05:31:54.459Z,23.15
2023-09-11T05:32:54.442Z,23.48
2023-09-11T05:33:54.403Z,25.09
2023-09-11T05:34:54.397Z,22.19
2023-09-11T05:35:54.399Z,24.77
2023-09-11T05:36:54.398Z,22.19
2023-09-11T05:37:54.346Z,23.15
2023-09-11T05:38:54.351Z,23.80
2023-09-11T05:39:54.329Z,23.80
2023-09-11T05:40:54.311Z,22.19
2023-09-11T05:41:54.316Z,23.48
2023-09-11T05:42:54.284Z,24.12
2023-09-11T05:43:54.293Z,22.83
2023-09-11T05:44:54.300Z,23.80
2023-09-11T05:45:54.253Z,21.87
2023-09-11T05:46:54.239Z,22.19
2023-09-11T05:47:54.305Z,22.19
2023-09-11T05:48:54.258Z,22.19
2023-09-11T05:49:54.191Z,20.25
2023-09-11T05:50:54.272Z,18.96
2023-09-11T05:51:54.168Z,20.25
2023-09-11T05:52:54.184Z,18.32
2023-09-11T05:53:54.167Z,19.93
2023-09-11T05:54:54.131Z,17.68
2023-09-11T05:55:54.463Z,21.22
2023-09-11T05:56:54.157Z,19.29
2023-09-11T05:57:54.106Z,18.32
2023-09-11T05:58:54.071Z,19.61
2023-09-11T05:59:54.113Z,19.29
2023-09-11T06:00:54.041Z,18.00
2023-09-11T06:01:54.037Z,18.96
2023-09-11T06:02:54.089Z,18.64
2023-09-11T06:03:54.179Z,18.96
2023-09-11T06:04:53.993Z,18.64
2023-09-11T06:05:54.014Z,19.29
2023-09-11T06:06:53.973Z,16.71
2023-09-11T06:07:53.962Z,18.32
2023-09-11T06:08:53.983Z,19.29
2023-09-11T06:09:53.925Z,19.93
2023-09-11T06:10:53.916Z,20.58
2023-09-11T06:11:53.947Z,18.32
2023-09-11T06:12:53.888Z,18.32
2023-09-11T06:13:53.932Z,19.61
2023-09-11T06:14:55.483Z,19.93
2023-09-11T06:15:53.869Z,20.90
2023-09-11T06:16:53.836Z,19.61
2023-09-11T06:17:53.860Z,19.61
2023-09-11T06:18:54.006Z,20.90
2023-09-11T06:19:53.856Z,20.25
2023-09-11T06:20:54.053Z,19.29
2023-09-11T06:21:53.821Z,21.22
2023-09-11T06:22:53.782Z,20.58
2023-09-11T06:23:53.817Z,20.25
2023-09-11T06:24:53.963Z,19.93
2023-09-11T06:25:53.722Z,18.64
2023-09-11T06:26:53.728Z,19.61
2023-09-11T06:27:53.687Z,19.29
2023-09-11T06:28:53.705Z,20.90
2023-09-11T06:29:53.701Z,18.64
2023-09-11T06:30:54.047Z,19.61
2023-09-11T06:31:53.640Z,19.61
2023-09-11T06:32:53.677Z,19.29
2023-09-11T06:33:53.688Z,21.22
2023-09-11T06:34:53.606Z,18.96
2023-09-11T06:35:53.631Z,20.58
2023-09-11T06:36:53.583Z,18.96
2023-09-11T06:37:53.560Z,18.32
2023-09-11T06:38:53.619Z,21.22
2023-09-11T06:39:53.537Z,20.90
2023-09-11T06:40:53.694Z,20.58
2023-09-11T06:41:53.553Z,21.87
2023-09-11T06:42:53.492Z,20.25
2023-09-11T06:43:53.475Z,18.64
2023-09-11T06:44:53.516Z,19.93
2023-09-11T06:45:53.480Z,22.19
2023-09-11T06:46:53.447Z,19.61
2023-09-11T06:47:53.492Z,19.93
2023-09-11T06:48:53.519Z,18.96
2023-09-11T06:49:53.402Z,20.25
2023-09-11T06:50:53.398Z,18.64
2023-09-11T06:51:53.385Z,19.93
2023-09-11T06:52:53.366Z,20.25
2023-09-11T06:53:53.405Z,20.90
2023-09-11T06:54:53.342Z,19.61
2023-09-11T06:55:53.327Z,20.90
2023-09-11T06:56:53.691Z,20.25
2023-09-11T06:57:53.303Z,20.90
2023-09-11T06:58:53.287Z,19.29
2023-09-11T06:59:53.338Z,18.32
2023-09-11T07:00:53.292Z,19.61
2023-09-11T07:01:53.250Z,19.93
2023-09-11T07:02:53.309Z,20.25
2023-09-11T07:03:53.365Z,19.29
2023-09-11T07:05:26.729Z,19.61
2023-09-11T07:06:26.631Z,20.58
2023-09-11T07:07:26.631Z,21.22
2023-09-11T07:08:26.954Z,19.29
2023-09-11T07:09:26.600Z,20.58
2023-09-11T07:10:39.881Z,19.93
2023-09-11T07:11:27.616Z,20.25
2023-09-11T07:12:26.581Z,19.93
2023-09-11T07:13:26.544Z,21.54
2023-09-11T07:14:26.536Z,22.19
2023-09-11T07:15:26.607Z,19.93
2023-09-11T07:16:26.507Z,21.22
2023-09-11T07:17:26.562Z,19.93
2023-09-11T07:18:26.554Z,20.58
2023-09-11T07:19:26.480Z,20.58
2023-09-11T07:20:26.484Z,19.93
2023-09-11T07:21:26.444Z,21.54
2023-09-11T07:22:26.427Z,19.61
2023-09-11T07:23:26.411Z,20.58
2023-09-11T07:24:26.401Z,21.87
2023-09-11T07:25:26.383Z,20.90
2023-09-11T07:26:26.369Z,19.93
2023-09-11T07:27:26.357Z,20.25
2023-09-11T07:28:26.384Z,22.19
2023-09-11T07:29:26.336Z,20.90
2023-09-11T07:30:26.538Z,21.87
2023-09-11T07:31:26.396Z,21.54
2023-09-11T07:32:26.324Z,20.90
2023-09-11T07:33:26.466Z,20.25
2023-09-11T07:34:26.263Z,20.58
2023-09-11T07:35:26.257Z,20.90
2023-09-11T07:36:26.239Z,21.87
2023-09-11T07:37:26.231Z,21.54
2023-09-11T07:38:26.212Z,20.58
2023-09-11T07:39:26.200Z,20.25
2023-09-11T07:40:26.188Z,20.90
2023-09-11T07:41:26.184Z,20.58
2023-09-11T07:42:26.166Z,20.58
2023-09-11T07:43:26.154Z,21.87
2023-09-11T07:44:26.178Z,20.25
2023-09-11T07:45:26.125Z,21.22
2023-09-11T07:46:26.175Z,19.93
2023-09-11T07:47:26.119Z,20.25
2023-09-11T07:48:26.201Z,21.22
2023-09-11T07:49:26.082Z,21.22
2023-09-11T07:50:26.065Z,21.87
2023-09-11T07:51:26.051Z,23.15
2023-09-11T07:52:26.054Z,20.58
2023-09-11T07:53:26.026Z,21.87
2023-09-11T07:54:26.018Z,20.25
2023-09-11T07:55:27.919Z,21.54
2023-09-11T07:56:26.041Z,21.22
2023-09-11T07:57:25.971Z,22.19
2023-09-11T07:58:25.968Z,20.25
2023-09-11T07:59:25.951Z,20.90
2023-09-11T08:00:25.969Z,21.87
2023-09-11T08:01:25.977Z,20.90
2023-09-11T08:02:25.916Z,21.54
2023-09-11T08:03:26.114Z,22.19
2023-09-11T08:04:25.973Z,22.19
2023-09-11T08:05:25.888Z,21.87
2023-09-11T08:06:25.867Z,20.58
2023-09-11T08:07:25.857Z,22.19
2023-09-11T08:08:25.840Z,20.58
2023-09-11T08:09:26.180Z,20.90
2023-09-11T08:10:25.879Z,21.22
2023-09-11T08:11:25.803Z,21.22
2023-09-11T08:12:25.795Z,20.58
2023-09-11T08:13:25.775Z,20.90
2023-09-11T08:14:25.772Z,23.48
2023-09-11T08:15:25.762Z,22.19
2023-09-11T08:16:25.783Z,19.93
2023-09-11T08:17:25.722Z,21.22
2023-09-11T08:18:25.786Z,20.90
2023-09-11T08:19:25.697Z,21.87
2023-09-11T08:20:25.686Z,21.22
2023-09-11T08:21:25.680Z,21.87
2023-09-11T08:22:25.677Z,21.54
2023-09-11T08:23:25.651Z,21.87
2023-09-11T08:24:25.643Z,21.22
2023-09-11T08:25:25.632Z,23.15
2023-09-11T08:26:25.611Z,21.54
2023-09-11T08:27:25.599Z,20.90
2023-09-11T08:28:25.585Z,21.87
2023-09-11T08:29:25.576Z,22.19
2023-09-11T08:30:25.586Z,20.90
2023-09-11T08:31:25.646Z,21.22
2023-09-11T08:32:25.608Z,20.90
2023-09-11T08:33:28.168Z,22.19
2023-09-11T08:34:26.534Z,22.51
2023-09-11T08:35:25.513Z,22.83
2023-09-11T08:36:25.491Z,20.90
2023-09-11T08:37:25.467Z,22.19
2023-09-11T08:38:25.467Z,21.87
2023-09-11T08:39:25.445Z,23.15
2023-09-11T08:40:25.434Z,21.54
2023-09-11T08:41:25.421Z,22.51
2023-09-11T08:42:25.411Z,21.87
2023-09-11T08:43:25.426Z,21.22
2023-09-11T08:44:25.381Z,21.54
2023-09-11T08:45:25.486Z,21.54
2023-09-11T08:46:25.509Z,23.15
2023-09-11T08:47:25.356Z,19.93
2023-09-11T08:48:25.567Z,21.54
2023-09-11T08:49:25.330Z,22.51
2023-09-11T08:50:25.316Z,21.54
2023-09-11T08:51:25.310Z,22.19
2023-09-11T08:52:25.604Z,21.54
2023-09-11T08:53:25.280Z,21.54
2023-09-11T08:54:25.276Z,21.54
2023-09-11T08:55:25.334Z,21.22
2023-09-11T08:56:25.237Z,21.54
2023-09-11T08:57:25.227Z,22.51
2023-09-11T08:58:25.228Z,21.87
2023-09-11T08:59:25.206Z,21.54
2023-09-11T09:00:25.194Z,21.87
2023-09-11T09:01:25.230Z,21.87
2023-09-11T09:02:25.167Z,20.90
2023-09-11T09:03:25.330Z,21.22
2023-09-11T09:04:25.255Z,23.48
2023-09-11T09:05:25.196Z,21.54
2023-09-11T09:06:25.121Z,23.48
2023-09-11T09:07:25.110Z,22.83
2023-09-11T09:08:25.104Z,22.83
2023-09-11T09:09:25.089Z,22.83
2023-09-11T09:10:25.071Z,21.87
2023-09-11T09:11:25.060Z,21.54
2023-09-11T09:12:25.053Z,21.54
2023-09-11T09:13:25.036Z,23.15
2023-09-11T09:14:25.025Z,23.80
2023-09-11T09:15:25.067Z,21.87
2023-09-11T09:16:25.052Z,22.83
2023-09-11T09:17:24.986Z,21.54
2023-09-11T09:18:25.113Z,22.19
2023-09-11T09:19:24.969Z,21.54
2023-09-11T09:20:24.981Z,21.54
2023-09-11T09:21:24.937Z,21.87
2023-09-11T09:22:24.924Z,21.87
2023-09-11T09:23:24.912Z,23.48
2023-09-11T09:24:24.904Z,24.12
2023-09-11T09:25:24.917Z,21.87
2023-09-11T09:26:24.880Z,22.83
2023-09-11T09:27:24.871Z,22.83
2023-09-11T09:28:24.881Z,23.15
2023-09-11T09:29:24.853Z,21.87
2023-09-11T09:30:24.851Z,21.54
2023-09-11T09:31:25.340Z,22.19
2023-09-11T09:32:24.827Z,22.83
2023-09-11T09:33:24.886Z,23.48
2023-09-11T09:34:24.784Z,22.51
2023-09-11T09:35:24.835Z,23.48
2023-09-11T09:36:24.918Z,23.48
2023-09-11T09:37:24.761Z,22.51
2023-09-11T09:38:24.747Z,23.15
2023-09-11T09:39:24.734Z,22.51
2023-09-11T09:40:24.724Z,22.19
2023-09-11T09:41:24.717Z,23.80
2023-09-11T09:42:24.699Z,22.19
2023-09-11T09:43:24.719Z,22.83
2023-09-11T09:44:24.702Z,23.48
2023-09-11T09:45:24.677Z,23.48
2023-09-11T09:46:24.787Z,21.87
2023-09-11T09:47:24.710Z,23.15
2023-09-11T09:48:24.703Z,22.51
2023-09-11T09:49:24.648Z,22.51
2023-09-11T09:50:24.690Z,22.51
2023-09-11T09:51:24.681Z,23.15
2023-09-11T09:52:24.686Z,23.80
2023-09-11T09:53:24.589Z,23.48
2023-09-11T09:54:24.605Z,23.80
2023-09-11T09:55:24.561Z,24.12
2023-09-11T09:56:24.586Z,23.80
2023-09-11T09:57:24.540Z,23.48
2023-09-11T09:58:24.522Z,22.51
2023-09-11T09:59:24.506Z,22.19
2023-09-11T10:00:24.508Z,23.15
2023-09-11T10:01:24.512Z,23.48
2023-09-11T10:02:24.514Z,23.15
2023-09-11T10:03:24.541Z,23.15
2023-09-11T10:04:24.440Z,23.48
2023-09-11T10:05:24.491Z,23.80
2023-09-11T10:06:24.426Z,22.83
2023-09-11T10:07:24.426Z,23.80
2023-09-11T10:08:24.425Z,24.12
2023-09-11T10:09:24.392Z,23.48
2023-09-11T10:10:24.399Z,22.51
2023-09-11T10:11:24.363Z,23.15
2023-09-11T10:12:24.371Z,22.83
2023-09-11T10:13:24.346Z,22.51
2023-09-11T10:14:24.350Z,24.12
2023-09-11T10:15:24.323Z,23.80
2023-09-11T10:16:24.333Z,23.48
2023-09-11T10:17:24.647Z,23.48
2023-09-11T10:18:24.311Z,23.15
2023-09-11T10:19:24.274Z,24.12
2023-09-11T10:20:24.260Z,24.77
2023-09-11T10:21:24.254Z,23.48
2023-09-11T10:22:24.242Z,23.80
2023-09-11T10:23:24.231Z,23.80
2023-09-11T10:24:24.256Z,24.12
2023-09-11T10:25:24.210Z,24.12
2023-09-11T10:26:24.193Z,22.83
2023-09-11T10:27:24.182Z,23.15
2023-09-11T10:28:24.173Z,24.44
2023-09-11T10:29:24.171Z,24.12
2023-09-11T10:30:24.196Z,23.80
2023-09-11T10:31:24.174Z,22.51
2023-09-11T10:32:24.131Z,24.12
2023-09-11T10:33:24.225Z,23.48
2023-09-11T10:34:24.121Z,23.80
2023-09-11T10:35:24.091Z,22.19
2023-09-11T10:36:24.087Z,23.48
2023-09-11T10:37:24.078Z,23.80
2023-09-11T10:38:24.073Z,22.19
2023-09-11T10:39:24.051Z,23.15
2023-09-11T10:40:24.060Z,23.80
2023-09-11T10:41:24.023Z,23.48
2023-09-11T10:42:24.017Z,23.80
2023-09-11T10:43:24.017Z,23.48
2023-09-11T10:44:24.006Z,23.48
2023-09-11T10:45:23.981Z,22.51
2023-09-11T10:46:24.050Z,23.48
2023-09-11T10:47:24.120Z,25.09
2023-09-11T10:48:24.058Z,24.44
2023-09-11T10:49:23.934Z,22.83
2023-09-11T10:50:23.928Z,24.12
2023-09-11T10:51:23.938Z,23.80
2023-09-11T10:52:23.902Z,23.80
2023-09-11T10:53:23.882Z,23.80
2023-09-11T10:54:23.974Z,23.80
2023-09-11T10:55:23.877Z,24.77
2023-09-11T10:56:23.888Z,23.80
2023-09-11T10:57:23.876Z,24.44
2023-09-11T10:58:23.831Z,24.12
2023-09-11T10:59:23.814Z,22.19
2023-09-11T11:00:23.818Z,25.41
2023-09-11T11:01:24.348Z,24.12
2023-09-11T11:02:23.827Z,24.77
2023-09-11T11:03:24.010Z,22.83
2023-09-11T11:04:23.850Z,24.12
2023-09-11T11:05:23.744Z,23.80
2023-09-11T11:06:23.737Z,25.09
2023-09-11T11:07:23.721Z,23.15
2023-09-11T11:08:23.707Z,24.77
2023-09-11T11:09:32.665Z,24.12
2023-09-11T11:10:24.873Z,24.12
2023-09-11T11:11:23.739Z,23.48
2023-09-11T11:12:23.683Z,23.80
2023-09-11T11:13:23.652Z,24.12
2023-09-11T11:14:23.637Z,24.77
2023-09-11T11:15:23.648Z,23.80
2023-09-11T11:16:23.712Z,25.09
2023-09-11T11:17:23.593Z,25.41
2023-09-11T11:18:23.738Z,25.73
2023-09-11T11:19:23.621Z,24.44
2023-09-11T11:20:23.563Z,23.80
2023-09-11T11:21:23.576Z,25.41
2023-09-11T11:22:23.543Z,23.48
2023-09-11T11:23:23.526Z,24.12
2023-09-11T11:24:23.538Z,23.15
2023-09-11T11:25:23.944Z,23.48
2023-09-11T11:26:23.485Z,23.80
2023-09-11T11:27:23.477Z,24.77
2023-09-11T11:28:23.493Z,25.09
2023-09-11T11:29:23.468Z,24.77
2023-09-11T11:30:23.466Z,25.09
2023-09-11T11:31:23.457Z,25.73
2023-09-11T11:32:23.472Z,23.80
2023-09-11T11:33:23.493Z,23.15
2023-09-11T11:34:23.391Z,24.44
2023-09-11T11:35:23.378Z,24.12
2023-09-11T11:36:23.373Z,23.15
2023-09-11T11:37:23.356Z,23.80
2023-09-11T11:38:23.349Z,24.12
2023-09-11T11:39:23.342Z,26.38
2023-09-11T11:40:23.688Z,23.80
2023-09-11T11:41:23.317Z,23.80
2023-09-11T11:42:23.371Z,24.77
2023-09-11T11:43:23.294Z,24.77
2023-09-11T11:44:23.339Z,24.77
2023-09-11T11:45:23.277Z,25.41
2023-09-11T11:46:23.308Z,24.12
2023-09-11T11:47:23.261Z,24.44
2023-09-11T11:48:23.310Z,24.44
2023-09-11T11:49:23.232Z,24.12
2023-09-11T11:50:23.216Z,26.05
2023-09-11T11:51:23.208Z,24.44
2023-09-11T11:52:23.192Z,25.09
2023-09-11T11:53:23.223Z,24.77
2023-09-11T11:54:23.178Z,24.12
2023-09-11T11:55:23.166Z,26.38
2023-09-11T11:56:23.146Z,24.77
2023-09-11T11:57:23.138Z,25.73
2023-09-11T11:58:23.129Z,24.44
2023-09-11T11:59:23.117Z,24.44
2023-09-11T12:00:23.182Z,25.09
2023-09-11T12:01:23.392Z,24.12
2023-09-11T12:02:23.173Z,24.12
2023-09-11T12:03:23.238Z,25.41
2023-09-11T12:04:36.530Z,25.09
2023-09-11T12:05:24.120Z,25.09
2023-09-11T12:06:23.087Z,24.44
2023-09-11T12:07:23.030Z,26.05
2023-09-11T12:08:23.018Z,24.77
2023-09-11T12:09:23.034Z,23.80
2023-09-11T12:10:23.002Z,24.77
2023-09-11T12:11:22.987Z,25.73
2023-09-11T12:12:22.984Z,25.41
2023-09-11T12:13:31.314Z,24.77
2023-09-11T12:14:23.971Z,24.44
2023-09-11T12:15:22.938Z,26.38
2023-09-11T12:16:22.995Z,25.41
2023-09-11T12:17:22.967Z,26.05
2023-09-11T12:18:23.019Z,24.44
2023-09-11T12:19:22.890Z,26.05
2023-09-11T12:20:22.873Z,25.41
2023-09-11T12:21:22.925Z,24.77
2023-09-11T12:22:22.849Z,25.09
2023-09-11T12:23:22.835Z,25.73
2023-09-11T12:24:22.832Z,25.73
2023-09-11T12:25:22.818Z,23.15
2023-09-11T12:26:22.806Z,24.12
2023-09-11T12:27:22.844Z,25.09
2023-09-11T12:28:22.783Z,25.41
2023-09-11T12:29:22.772Z,25.73
2023-09-11T12:30:22.756Z,25.73
2023-09-11T12:31:22.767Z,24.44
2023-09-11T12:32:28.340Z,25.09
2023-09-11T12:33:23.830Z,27.02
2023-09-11T12:34:22.711Z,25.41
2023-09-11T12:35:22.702Z,24.44
2023-09-11T12:36:23.044Z,25.41
2023-09-11T12:37:22.672Z,26.70
2023-09-11T12:38:22.658Z,25.41
2023-09-11T12:39:22.661Z,24.12
2023-09-11T12:40:22.630Z,25.09
2023-09-11T12:41:22.628Z,26.05
2023-09-11T12:42:22.611Z,25.09
2023-09-11T12:43:22.675Z,25.41
2023-09-11T12:44:22.589Z,25.41
2023-09-11T12:45:22.594Z,25.09
2023-09-11T12:46:22.673Z,24.77
2023-09-11T12:47:22.548Z,23.80
2023-09-11T12:48:22.859Z,25.73
2023-09-11T12:49:22.681Z,26.70
2023-09-11T12:50:22.548Z,25.41
2023-09-11T12:51:22.513Z,23.80
2023-09-11T12:52:22.514Z,25.41
2023-09-11T12:53:22.476Z,26.70